Portada
METAR-TAF:

METAR-TAF

Aeroports :

Kostanay, Kazakhstan

latitud: 53-12-23N, longitud: 063-33-03E, altitud: 182 m

Observació

L'informe es va fer fa 35 minuts, a les 04:30 UTC
Vent 6 kt del Est/Sud-Est
Temperatura -7°C
Humitat 79%
Pressió 1026 hPa
Visibilitat 10 km o més
sense núvols per sota de 1500 mi sense presència de cumulonimbus.

METAR: UAUU 200430Z 11003MPS CAVOK M07/M10 Q1026 R33/CLRD60 NOSIG RMK QFE754/1005

Hora: 11:05 (05:05 UTC)

Pronòstic

L'informe es va fer fa 3 hores i 5 minuts, a les 02:00 UTC
Pronòstic vàlid del 20 a les 03 UTC al 20 a les 12 UTC
Vent 6 kt del Est/Sud-Est
Visibilitat 10 km o més
Núvols disperses a una alçada de 1100 ft
Temporalment
l' 20 a les 03 UTC al 20 a les 05 UTC
Visibilitat: 3100 m
Cel ennuvolat a una alçada de 1100 ft
boirina

TAF: UAUU 200200Z 2003/2012 11003MPS 9999 SCT011 TEMPO 2003/2005 3100 BR BKN011

Observacions i pronòstics meteorològics de més de 4000 aeroports (METAR i TAF).

Les estacions disponibles són els punts grocs i vermells al mapa.

Posi el ratolí al punt desitjat per veure el nom de l'estació.

Feu clic per veure les observacions i els pronòstics meteorològics.

Per canviar el mapa: feu clic els botons verds amb una creu de color negre per apropar; al botó verd amb un guió per allunyar la imatge; o en les fletxes verdes per a mapes adjacents.


METAR-TAF: